sensor_id;sensor_type;location;lat;lon;timestamp;pressure;altitude;pressure_sealevel;temperature;humidity
44934;BME280;30667;43.614;1.442;2023-05-08T00:01:58;100679.44;;;15.28;100.00
44934;BME280;30667;43.614;1.442;2023-05-08T00:04:23;100685.69;;;15.28;100.00
44934;BME280;30667;43.614;1.442;2023-05-08T00:06:48;100689.00;;;15.25;100.00
44934;BME280;30667;43.614;1.442;2023-05-08T00:09:15;100681.66;;;15.25;100.00
44934;BME280;30667;43.614;1.442;2023-05-08T00:11:41;100686.63;;;15.18;100.00
44934;BME280;30667;43.614;1.442;2023-05-08T00:14:06;100686.56;;;15.23;100.00
44934;BME280;30667;43.614;1.442;2023-05-08T00:16:32;100689.56;;;15.22;100.00
44934;BME280;30667;43.614;1.442;2023-05-08T00:18:57;100692.56;;;15.25;100.00
44934;BME280;30667;43.614;1.442;2023-05-08T00:21:23;100684.88;;;15.28;100.00
44934;BME280;30667;43.614;1.442;2023-05-08T00:23:49;100687.91;;;15.26;100.00
44934;BME280;30667;43.614;1.442;2023-05-08T00:26:14;100689.53;;;15.27;100.00
44934;BME280;30667;43.614;1.442;2023-05-08T00:28:40;100686.34;;;15.20;100.00
44934;BME280;30667;43.614;1.442;2023-05-08T00:31:05;100684.78;;;15.14;100.00
44934;BME280;30667;43.614;1.442;2023-05-08T00:33:31;100685.63;;;15.14;100.00
44934;BME280;30667;43.614;1.442;2023-05-08T00:36:03;100686.69;;;15.13;100.00
44934;BME280;30667;43.614;1.442;2023-05-08T00:38:30;100686.69;;;15.13;100.00
44934;BME280;30667;43.614;1.442;2023-05-08T00:40:55;100691.34;;;15.13;100.00
44934;BME280;30667;43.614;1.442;2023-05-08T00:43:21;100695.25;;;15.06;100.00
44934;BME280;30667;43.614;1.442;2023-05-08T00:45:50;100688.44;;;15.04;100.00
44934;BME280;30667;43.614;1.442;2023-05-08T00:48:16;100696.63;;;15.04;100.00
44934;BME280;30667;43.614;1.442;2023-05-08T00:50:42;100687.72;;;14.98;100.00
44934;BME280;30667;43.614;1.442;2023-05-08T00:53:07;100697.50;;;14.99;100.00
44934;BME280;30667;43.614;1.442;2023-05-08T00:55:33;100694.75;;;14.99;100.00
44934;BME280;30667;43.614;1.442;2023-05-08T00:57:58;100696.91;;;15.02;100.00
44934;BME280;30667;43.614;1.442;2023-05-08T01:00:24;100694.19;;;15.02;100.00
44934;BME280;30667;43.614;1.442;2023-05-08T01:02:50;100697.44;;;15.04;100.00
44934;BME280;30667;43.614;1.442;2023-05-08T01:05:15;100688.97;;;15.06;100.00
44934;BME280;30667;43.614;1.442;2023-05-08T01:07:41;100693.81;;;15.09;100.00
44934;BME280;30667;43.614;1.442;2023-05-08T01:10:07;100693.25;;;15.12;100.00
44934;BME280;30667;43.614;1.442;2023-05-08T01:13:14;100702.53;;;15.11;100.00
44934;BME280;30667;43.614;1.442;2023-05-08T01:15:48;100697.13;;;15.06;100.00
44934;BME280;30667;43.614;1.442;2023-05-08T01:18:36;100697.13;;;15.06;100.00
44934;BME280;30667;43.614;1.442;2023-05-08T01:21:11;100698.75;;;15.07;100.00
44934;BME280;30667;43.614;1.442;2023-05-08T01:32:24;100697.72;;;15.03;100.00
44934;BME280;30667;43.614;1.442;2023-05-08T01:40:24;100701.78;;;15.05;100.00
44934;BME280;30667;43.614;1.442;2023-05-08T01:43:00;100702.06;;;15.04;100.00
44934;BME280;30667;43.614;1.442;2023-05-08T01:45:48;100702.66;;;15.01;100.00
44934;BME280;30667;43.614;1.442;2023-05-08T01:48:31;100700.22;;;14.99;100.00
44934;BME280;30667;43.614;1.442;2023-05-08T01:51:04;100705.94;;;14.98;100.00
44934;BME280;30667;43.614;1.442;2023-05-08T01:53:41;100707.59;;;14.99;100.00
44934;BME280;30667;43.614;1.442;2023-05-08T01:56:14;100710.53;;;15.02;100.00
44934;BME280;30667;43.614;1.442;2023-05-08T01:58:42;100712.53;;;14.97;100.00
44934;BME280;30667;43.614;1.442;2023-05-08T02:01:11;100716.63;;;14.94;100.00
44934;BME280;30667;43.614;1.442;2023-05-08T02:03:38;100716.56;;;14.99;100.00
44934;BME280;30667;43.614;1.442;2023-05-08T02:06:07;100715.75;;;14.99;100.00
44934;BME280;30667;43.614;1.442;2023-05-08T02:08:33;100718.56;;;14.94;100.00
44934;BME280;30667;43.614;1.442;2023-05-08T02:11:00;100710.53;;;15.02;100.00
44934;BME280;30667;43.614;1.442;2023-05-08T02:13:28;100716.28;;;15.01;100.00
44934;BME280;30667;43.614;1.442;2023-05-08T02:15:55;100717.63;;;15.03;100.00
44934;BME280;30667;43.614;1.442;2023-05-08T02:18:23;100720.63;;;15.02;100.00
44934;BME280;30667;43.614;1.442;2023-05-08T02:20:51;100711.13;;;14.99;100.00
44934;BME280;30667;43.614;1.442;2023-05-08T02:23:18;100704.28;;;15.02;100.00
44934;BME280;30667;43.614;1.442;2023-05-08T02:25:45;100707.53;;;15.04;100.00
44934;BME280;30667;43.614;1.442;2023-05-08T02:28:11;100707.06;;;14.97;100.00
44934;BME280;30667;43.614;1.442;2023-05-08T02:30:37;100707.88;;;14.97;100.00
44934;BME280;30667;43.614;1.442;2023-05-08T02:33:07;100700.28;;;14.94;100.00
44934;BME280;30667;43.614;1.442;2023-05-08T02:35:35;100696.75;;;14.94;100.00
44934;BME280;30667;43.614;1.442;2023-05-08T02:38:02;100713.97;;;14.89;100.00
44934;BME280;30667;43.614;1.442;2023-05-08T02:40:35;100705.56;;;14.85;100.00
44934;BME280;30667;43.614;1.442;2023-05-08T02:43:01;100708.44;;;14.94;100.00
44934;BME280;30667;43.614;1.442;2023-05-08T02:45:32;100705.50;;;14.91;100.00
44934;BME280;30667;43.614;1.442;2023-05-08T02:48:21;100704.50;;;14.81;100.00
44934;BME280;30667;43.614;1.442;2023-05-08T02:51:03;100711.03;;;14.85;100.00
44934;BME280;30667;43.614;1.442;2023-05-08T02:53:47;100703.94;;;14.84;100.00
44934;BME280;30667;43.614;1.442;2023-05-08T02:56:24;100698.19;;;14.86;100.00
44934;BME280;30667;43.614;1.442;2023-05-08T02:59:05;100704.75;;;14.85;100.00
44934;BME280;30667;43.614;1.442;2023-05-08T03:01:46;100695.75;;;14.84;100.00
44934;BME280;30667;43.614;1.442;2023-05-08T03:04:20;100700.91;;;14.86;100.00
44934;BME280;30667;43.614;1.442;2023-05-08T03:06:48;100708.31;;;14.80;100.00
44934;BME280;30667;43.614;1.442;2023-05-08T03:09:18;100704.78;;;14.80;100.00
44934;BME280;30667;43.614;1.442;2023-05-08T03:11:47;100706.25;;;14.72;100.00
44934;BME280;30667;43.614;1.442;2023-05-08T03:14:18;100700.22;;;14.75;100.00
44934;BME280;30667;43.614;1.442;2023-05-08T03:16:46;100700.78;;;14.72;100.00
44934;BME280;30667;43.614;1.442;2023-05-08T03:19:27;100704.38;;;14.67;100.00
44934;BME280;30667;43.614;1.442;2023-05-08T03:21:55;100700.03;;;14.66;100.00
44934;BME280;30667;43.614;1.442;2023-05-08T03:24:23;100702.22;;;14.64;100.00
44934;BME280;30667;43.614;1.442;2023-05-08T03:26:49;100702.00;;;14.61;100.00
44934;BME280;30667;43.614;1.442;2023-05-08T03:29:15;100707.38;;;14.66;100.00
44934;BME280;30667;43.614;1.442;2023-05-08T03:31:43;100705.25;;;14.63;100.00
44934;BME280;30667;43.614;1.442;2023-05-08T03:34:11;100700.38;;;14.54;100.00
44934;BME280;30667;43.614;1.442;2023-05-08T03:36:36;100705.03;;;14.54;100.00
44934;BME280;30667;43.614;1.442;2023-05-08T03:39:02;100713.44;;;14.58;100.00
44934;BME280;30667;43.614;1.442;2023-05-08T03:41:28;100714.56;;;14.51;100.00
44934;BME280;30667;43.614;1.442;2023-05-08T03:43:54;100716.72;;;14.54;100.00
44934;BME280;30667;43.614;1.442;2023-05-08T03:46:20;100706.41;;;14.51;100.00
44934;BME280;30667;43.614;1.442;2023-05-08T03:48:48;100711.28;;;14.54;100.00
44934;BME280;30667;43.614;1.442;2023-05-08T03:51:14;100708.00;;;14.58;100.00
44934;BME280;30667;43.614;1.442;2023-05-08T03:53:40;100712.13;;;14.50;100.00
44934;BME280;30667;43.614;1.442;2023-05-08T03:56:06;100717.94;;;14.43;100.00
44934;BME280;30667;43.614;1.442;2023-05-08T04:01:11;100721.94;;;14.51;100.00
44934;BME280;30667;43.614;1.442;2023-05-08T04:04:05;100729.88;;;14.47;100.00
44934;BME280;30667;43.614;1.442;2023-05-08T04:06:43;100727.44;;;14.46;100.00
44934;BME280;30667;43.614;1.442;2023-05-08T04:09:26;100733.91;;;14.50;100.00
44934;BME280;30667;43.614;1.442;2023-05-08T04:14:38;100725.56;;;14.41;100.00
44934;BME280;30667;43.614;1.442;2023-05-08T04:17:09;100729.91;;;14.42;100.00
44934;BME280;30667;43.614;1.442;2023-05-08T04:19:38;100732.09;;;14.40;100.00
44934;BME280;30667;43.614;1.442;2023-05-08T04:22:09;100733.47;;;14.43;100.00
44934;BME280;30667;43.614;1.442;2023-05-08T04:24:43;100737.25;;;14.42;100.00
44934;BME280;30667;43.614;1.442;2023-05-08T04:27:11;100731.03;;;14.41;100.00
44934;BME280;30667;43.614;1.442;2023-05-08T04:29:37;100732.63;;;14.42;100.00
44934;BME280;30667;43.614;1.442;2023-05-08T04:32:06;100739.47;;;14.40;100.00
44934;BME280;30667;43.614;1.442;2023-05-08T04:34:33;100733.22;;;14.39;100.00
44934;BME280;30667;43.614;1.442;2023-05-08T04:36:58;100733.75;;;14.41;100.00
44934;BME280;30667;43.614;1.442;2023-05-08T04:39:24;100737.50;;;14.45;100.00
44934;BME280;30667;43.614;1.442;2023-05-08T04:41:49;100731.81;;;14.42;100.00
44934;BME280;30667;43.614;1.442;2023-05-08T04:44:16;100733.16;;;14.44;100.00
44934;BME280;30667;43.614;1.442;2023-05-08T04:46:42;100731.53;;;14.43;100.00
44934;BME280;30667;43.614;1.442;2023-05-08T04:49:07;100734.88;;;14.35;100.00
44934;BME280;30667;43.614;1.442;2023-05-08T04:51:33;100728.88;;;14.38;100.00
44934;BME280;30667;43.614;1.442;2023-05-08T04:53:58;100731.53;;;14.43;100.00
44934;BME280;30667;43.614;1.442;2023-05-08T04:56:24;100739.75;;;14.38;100.00
44934;BME280;30667;43.614;1.442;2023-05-08T04:58:51;100735.41;;;14.37;100.00
44934;BME280;30667;43.614;1.442;2023-05-08T05:01:16;100732.91;;;14.41;100.00
44934;BME280;30667;43.614;1.442;2023-05-08T05:03:41;100729.38;;;14.40;100.00
44934;BME280;30667;43.614;1.442;2023-05-08T05:06:07;100741.06;;;14.41;100.00
44934;BME280;30667;43.614;1.442;2023-05-08T05:08:32;100732.09;;;14.40;100.00
44934;BME280;30667;43.614;1.442;2023-05-08T05:10:58;100739.22;;;14.36;100.00
44934;BME280;30667;43.614;1.442;2023-05-08T05:13:23;100743.34;;;14.33;100.00
44934;BME280;30667;43.614;1.442;2023-05-08T05:15:48;100748.78;;;14.33;100.00
44934;BME280;30667;43.614;1.442;2023-05-08T05:18:16;100750.06;;;14.41;100.00
44934;BME280;30667;43.614;1.442;2023-05-08T05:20:42;100748.44;;;14.40;100.00
44934;BME280;30667;43.614;1.442;2023-05-08T05:23:07;100750.59;;;14.43;100.00
44934;BME280;30667;43.614;1.442;2023-05-08T05:25:33;100750.88;;;14.42;100.00
44934;BME280;30667;43.614;1.442;2023-05-08T05:27:59;100747.63;;;14.40;100.00
44934;BME280;30667;43.614;1.442;2023-05-08T05:30:24;100748.50;;;14.35;100.00
44934;BME280;30667;43.614;1.442;2023-05-08T05:32:49;100750.59;;;14.43;100.00
44934;BME280;30667;43.614;1.442;2023-05-08T05:35:15;100748.16;;;14.42;100.00
44934;BME280;30667;43.614;1.442;2023-05-08T05:37:40;100739.94;;;14.47;100.00
44934;BME280;30667;43.614;1.442;2023-05-08T05:40:06;100748.09;;;14.47;100.00
44934;BME280;30667;43.614;1.442;2023-05-08T05:42:31;100752.22;;;14.44;100.00
44934;BME280;30667;43.614;1.442;2023-05-08T05:44:57;100747.53;;;14.50;100.00
44934;BME280;30667;43.614;1.442;2023-05-08T05:47:23;100756.28;;;14.47;100.00
44934;BME280;30667;43.614;1.442;2023-05-08T05:49:48;100749.13;;;14.56;100.00
44934;BME280;30667;43.614;1.442;2023-05-08T05:52:14;100755.78;;;14.74;100.00
44934;BME280;30667;43.614;1.442;2023-05-08T05:54:39;100754.97;;;14.74;100.00
44934;BME280;30667;43.614;1.442;2023-05-08T05:57:05;100763.88;;;14.84;100.00
44934;BME280;30667;43.614;1.442;2023-05-08T05:59:32;100764.81;;;14.99;100.00
44934;BME280;30667;43.614;1.442;2023-05-08T06:01:57;100761.56;;;15.21;100.00
44934;BME280;30667;43.614;1.442;2023-05-08T06:04:22;100765.41;;;15.20;100.00
44934;BME280;30667;43.614;1.442;2023-05-08T06:06:48;100762.88;;;14.99;100.00
44934;BME280;30667;43.614;1.442;2023-05-08T06:09:13;100765.59;;;15.29;100.00
44934;BME280;30667;43.614;1.442;2023-05-08T06:11:38;100763.53;;;15.15;100.00
44934;BME280;30667;43.614;1.442;2023-05-08T06:14:04;100757.97;;;15.01;100.00
44934;BME280;30667;43.614;1.442;2023-05-08T06:16:29;100760.88;;;15.10;100.00
44934;BME280;30667;43.614;1.442;2023-05-08T06:18:55;100770.09;;;15.38;100.00
44934;BME280;30667;43.614;1.442;2023-05-08T06:21:20;100766.13;;;15.50;100.00
44934;BME280;30667;43.614;1.442;2023-05-08T06:23:46;100769.41;;;15.71;100.00
44934;BME280;30667;43.614;1.442;2023-05-08T06:26:11;100773.97;;;15.75;100.00
44934;BME280;30667;43.614;1.442;2023-05-08T06:28:37;100771.66;;;15.88;100.00
44934;BME280;30667;43.614;1.442;2023-05-08T06:31:02;100774.69;;;15.86;100.00
44934;BME280;30667;43.614;1.442;2023-05-08T06:33:27;100770.31;;;15.85;100.00
44934;BME280;30667;43.614;1.442;2023-05-08T06:35:54;100775.03;;;15.98;100.00
44934;BME280;30667;43.614;1.442;2023-05-08T06:38:20;100771.41;;;16.03;100.00
44934;BME280;30667;43.614;1.442;2023-05-08T06:40:46;100771.66;;;16.07;100.00
44934;BME280;30667;43.614;1.442;2023-05-08T06:43:12;100757.78;;;15.84;100.00
44934;BME280;30667;43.614;1.442;2023-05-08T06:45:38;100756.00;;;15.93;100.00
44934;BME280;30667;43.614;1.442;2023-05-08T06:48:04;100763.22;;;16.03;100.00
44934;BME280;30667;43.614;1.442;2023-05-08T06:50:29;100765.22;;;16.16;100.00
44934;BME280;30667;43.614;1.442;2023-05-08T06:52:55;100766.47;;;16.24;100.00
44934;BME280;30667;43.614;1.442;2023-05-08T06:55:21;100764.63;;;16.39;100.00
44934;BME280;30667;43.614;1.442;2023-05-08T06:57:46;100771.53;;;16.50;100.00
44934;BME280;30667;43.614;1.442;2023-05-08T07:00:12;100772.56;;;16.35;100.00
44934;BME280;30667;43.614;1.442;2023-05-08T07:02:37;100766.50;;;16.38;100.00
44934;BME280;30667;43.614;1.442;2023-05-08T07:05:03;100770.28;;;16.42;100.00
44934;BME280;30667;43.614;1.442;2023-05-08T07:07:28;100777.31;;;16.29;100.00
44934;BME280;30667;43.614;1.442;2023-05-08T07:09:54;100772.50;;;16.40;100.00
44934;BME280;30667;43.614;1.442;2023-05-08T07:12:19;100765.22;;;16.49;100.00
44934;BME280;30667;43.614;1.442;2023-05-08T07:14:45;100778.34;;;16.66;100.00
44934;BME280;30667;43.614;1.442;2023-05-08T07:17:10;100775.31;;;16.68;100.00
44934;BME280;30667;43.614;1.442;2023-05-08T07:19:36;100774.66;;;16.57;100.00
44934;BME280;30667;43.614;1.442;2023-05-08T07:22:02;100780.28;;;16.66;100.00
44934;BME280;30667;43.614;1.442;2023-05-08T07:24:28;100780.78;;;16.68;100.00
44934;BME280;30667;43.614;1.442;2023-05-08T07:26:53;100785.09;;;16.55;100.00
44934;BME280;30667;43.614;1.442;2023-05-08T07:29:19;100785.59;;;16.57;100.00
44934;BME280;30667;43.614;1.442;2023-05-08T07:31:45;100783.75;;;16.52;100.00
44934;BME280;30667;43.614;1.442;2023-05-08T07:34:11;100777.50;;;16.52;100.00
44934;BME280;30667;43.614;1.442;2023-05-08T07:36:36;100775.63;;;16.66;100.00
44934;BME280;30667;43.614;1.442;2023-05-08T07:39:02;100784.53;;;16.72;100.00
44934;BME280;30667;43.614;1.442;2023-05-08T07:41:28;100781.63;;;16.82;100.00
44934;BME280;30667;43.614;1.442;2023-05-08T07:43:53;100774.53;;;16.81;100.00
44934;BME280;30667;43.614;1.442;2023-05-08T07:46:19;100784.59;;;16.53;100.00
44934;BME280;30667;43.614;1.442;2023-05-08T07:48:45;100786.09;;;16.26;100.00
44934;BME280;30667;43.614;1.442;2023-05-08T07:51:11;100781.75;;;16.25;100.00
44934;BME280;30667;43.614;1.442;2023-05-08T07:53:37;100788.38;;;16.38;100.00
44934;BME280;30667;43.614;1.442;2023-05-08T07:56:03;100789.25;;;16.33;100.00
44934;BME280;30667;43.614;1.442;2023-05-08T07:58:28;100782.09;;;16.38;100.00
44934;BME280;30667;43.614;1.442;2023-05-08T08:00:53;100784.38;;;16.30;100.00
44934;BME280;30667;43.614;1.442;2023-05-08T08:03:19;100776.03;;;16.41;100.00
44934;BME280;30667;43.614;1.442;2023-05-08T08:05:44;100779.44;;;16.65;100.00
44934;BME280;30667;43.614;1.442;2023-05-08T08:08:10;100777.09;;;17.05;100.00
44934;BME280;30667;43.614;1.442;2023-05-08T08:10:35;100788.25;;;16.95;100.00
44934;BME280;30667;43.614;1.442;2023-05-08T08:13:00;100787.53;;;17.03;100.00
44934;BME280;30667;43.614;1.442;2023-05-08T08:15:26;100778.41;;;16.94;100.00
44934;BME280;30667;43.614;1.442;2023-05-08T08:17:53;100781.56;;;16.87;100.00
44934;BME280;30667;43.614;1.442;2023-05-08T08:20:18;100769.75;;;17.06;100.00
44934;BME280;30667;43.614;1.442;2023-05-08T08:22:44;100780.47;;;17.16;100.00
44934;BME280;30667;43.614;1.442;2023-05-08T08:25:09;100778.44;;;17.22;100.00
44934;BME280;30667;43.614;1.442;2023-05-08T08:27:35;100772.75;;;17.32;100.00
44934;BME280;30667;43.614;1.442;2023-05-08T08:30:00;100773.69;;;17.28;100.00
44934;BME280;30667;43.614;1.442;2023-05-08T08:32:26;100772.28;;;17.30;100.00
44934;BME280;30667;43.614;1.442;2023-05-08T08:34:51;100766.28;;;17.42;100.00
44934;BME280;30667;43.614;1.442;2023-05-08T08:37:16;100768.81;;;17.38;100.00
44934;BME280;30667;43.614;1.442;2023-05-08T08:39:42;100771.34;;;17.21;100.00
44934;BME280;30667;43.614;1.442;2023-05-08T08:42:07;100776.41;;;17.28;100.00
44934;BME280;30667;43.614;1.442;2023-05-08T08:44:33;100775.19;;;17.20;100.00
44934;BME280;30667;43.614;1.442;2023-05-08T08:46:59;100778.22;;;17.32;100.00
44934;BME280;30667;43.614;1.442;2023-05-08T08:49:30;100777.53;;;17.40;100.00
44934;BME280;30667;43.614;1.442;2023-05-08T08:52:06;100782.59;;;17.47;100.00
44934;BME280;30667;43.614;1.442;2023-05-08T08:54:33;100782.00;;;17.36;100.00
44934;BME280;30667;43.614;1.442;2023-05-08T08:57:00;100794.03;;;17.49;100.00
44934;BME280;30667;43.614;1.442;2023-05-08T08:59:30;100796.38;;;17.56;100.00
44934;BME280;30667;43.614;1.442;2023-05-08T09:02:00;100790.66;;;17.66;100.00
44934;BME280;30667;43.614;1.442;2023-05-08T09:04:30;100800.13;;;17.60;100.00
44934;BME280;30667;43.614;1.442;2023-05-08T09:06:56;100790.50;;;17.49;100.00
44934;BME280;30667;43.614;1.442;2023-05-08T09:09:23;100792.09;;;17.50;100.00
44934;BME280;30667;43.614;1.442;2023-05-08T09:11:51;100799.09;;;17.56;100.00
44934;BME280;30667;43.614;1.442;2023-05-08T09:14:16;100798.50;;;17.59;100.00
44934;BME280;30667;43.614;1.442;2023-05-08T09:16:42;100807.72;;;17.49;100.00
44934;BME280;30667;43.614;1.442;2023-05-08T09:19:08;100810.53;;;17.58;100.00
44934;BME280;30667;43.614;1.442;2023-05-08T09:21:33;100822.00;;;17.60;100.00
44934;BME280;30667;43.614;1.442;2023-05-08T09:24:03;100829.09;;;17.61;100.00
44934;BME280;30667;43.614;1.442;2023-05-08T09:26:47;100828.97;;;17.66;100.00
44934;BME280;30667;43.614;1.442;2023-05-08T09:31:40;100828.91;;;17.57;100.00
44934;BME280;30667;43.614;1.442;2023-05-08T09:34:07;100828.19;;;17.66;100.00
44934;BME280;30667;43.614;1.442;2023-05-08T09:36:33;100824.63;;;17.65;100.00
44934;BME280;30667;43.614;1.442;2023-05-08T09:39:00;100823.50;;;17.80;100.00
44934;BME280;30667;43.614;1.442;2023-05-08T09:41:25;100813.78;;;17.88;100.00
44934;BME280;30667;43.614;1.442;2023-05-08T09:44:05;100822.19;;;17.77;100.00
44934;BME280;30667;43.614;1.442;2023-05-08T09:46:32;100818.31;;;17.78;100.00
44934;BME280;30667;43.614;1.442;2023-05-08T09:49:02;100815.09;;;17.90;100.00
44934;BME280;30667;43.614;1.442;2023-05-08T09:51:30;100817.41;;;17.97;100.00
44934;BME280;30667;43.614;1.442;2023-05-08T09:53:57;100810.00;;;17.97;100.00
44934;BME280;30667;43.614;1.442;2023-05-08T09:56:33;100810.59;;;18.08;100.00
44934;BME280;30667;43.614;1.442;2023-05-08T09:59:01;100802.88;;;18.10;100.00
44934;BME280;30667;43.614;1.442;2023-05-08T10:01:34;100799.50;;;18.13;100.00
44934;BME280;30667;43.614;1.442;2023-05-08T10:04:00;100812.00;;;18.06;100.00
44934;BME280;30667;43.614;1.442;2023-05-08T10:06:26;100808.69;;;17.81;100.00
44934;BME280;30667;43.614;1.442;2023-05-08T10:09:12;100807.25;;;17.84;100.00
44934;BME280;30667;43.614;1.442;2023-05-08T10:11:48;100803.84;;;17.92;100.00
44934;BME280;30667;43.614;1.442;2023-05-08T10:14:17;100801.31;;;17.95;100.00
44934;BME280;30667;43.614;1.442;2023-05-08T10:16:46;100795.97;;;18.13;100.00
44934;BME280;30667;43.614;1.442;2023-05-08T10:19:18;100797.16;;;18.21;100.00
44934;BME280;30667;43.614;1.442;2023-05-08T10:21:51;100805.25;;;18.26;100.00
44934;BME280;30667;43.614;1.442;2023-05-08T10:24:31;100805.25;;;18.26;100.00
44934;BME280;30667;43.614;1.442;2023-05-08T10:27:09;100803.91;;;18.37;100.00
44934;BME280;30667;43.614;1.442;2023-05-08T10:29:53;100802.66;;;18.43;100.00
44934;BME280;30667;43.614;1.442;2023-05-08T10:32:21;100802.03;;;18.46;100.00
44934;BME280;30667;43.614;1.442;2023-05-08T10:34:55;100800.09;;;18.47;100.00
44934;BME280;30667;43.614;1.442;2023-05-08T10:37:22;100787.41;;;18.51;100.00
44934;BME280;30667;43.614;1.442;2023-05-08T10:39:48;100800.91;;;18.47;100.00
44934;BME280;30667;43.614;1.442;2023-05-08T10:42:14;100799.22;;;18.38;100.00
44934;BME280;30667;43.614;1.442;2023-05-08T10:44:40;100795.06;;;18.40;100.00
44934;BME280;30667;43.614;1.442;2023-05-08T10:47:18;100791.69;;;18.43;100.00
44934;BME280;30667;43.614;1.442;2023-05-08T10:53:06;100785.47;;;18.51;100.00
44934;BME280;30667;43.614;1.442;2023-05-08T10:55:35;100780.13;;;18.46;100.00
44934;BME280;30667;43.614;1.442;2023-05-08T10:58:08;100778.00;;;18.43;100.00
44934;BME280;30667;43.614;1.442;2023-05-08T11:03:28;100763.44;;;18.34;100.00
44934;BME280;30667;43.614;1.442;2023-05-08T11:05:55;100766.91;;;18.48;100.00
44934;BME280;30667;43.614;1.442;2023-05-08T11:08:23;100764.97;;;18.49;100.00
44934;BME280;30667;43.614;1.442;2023-05-08T11:13:28;100756.63;;;18.54;100.00
44934;BME280;30667;43.614;1.442;2023-05-08T11:15:54;100757.78;;;18.62;100.00
44934;BME280;30667;43.614;1.442;2023-05-08T11:18:21;100739.22;;;18.59;100.00
44934;BME280;30667;43.614;1.442;2023-05-08T11:20:59;100742.34;;;18.66;100.00
44934;BME280;30667;43.614;1.442;2023-05-08T11:23:32;100738.50;;;18.76;100.00
44934;BME280;30667;43.614;1.442;2023-05-08T11:26:11;100735.78;;;18.76;100.00
44934;BME280;30667;43.614;1.442;2023-05-08T11:31:04;100728.47;;;18.62;100.00
44934;BME280;30667;43.614;1.442;2023-05-08T11:33:33;100728.50;;;18.71;100.00
44934;BME280;30667;43.614;1.442;2023-05-08T11:36:13;100725.72;;;18.62;100.00
44934;BME280;30667;43.614;1.442;2023-05-08T11:38:39;100723.28;;;18.61;100.00
44934;BME280;30667;43.614;1.442;2023-05-08T11:41:09;100717.19;;;18.64;100.00
44934;BME280;30667;43.614;1.442;2023-05-08T11:46:13;100703.69;;;18.76;100.00
44934;BME280;30667;43.614;1.442;2023-05-08T11:48:39;100699.81;;;18.77;100.00
44934;BME280;30667;43.614;1.442;2023-05-08T11:51:04;100693.59;;;18.85;100.00
44934;BME280;30667;43.614;1.442;2023-05-08T11:53:31;100691.78;;;18.81;100.00
44934;BME280;30667;43.614;1.442;2023-05-08T11:55:57;100698.19;;;18.76;100.00
44934;BME280;30667;43.614;1.442;2023-05-08T11:58:23;100688.38;;;18.75;100.00
44934;BME280;30667;43.614;1.442;2023-05-08T12:00:49;100690.06;;;18.85;100.00
44934;BME280;30667;43.614;1.442;2023-05-08T12:03:16;100685.56;;;18.89;100.00
44934;BME280;30667;43.614;1.442;2023-05-08T12:05:42;100679.78;;;18.99;100.00
44934;BME280;30667;43.614;1.442;2023-05-08T12:08:09;100678.63;;;18.92;100.00
44934;BME280;30667;43.614;1.442;2023-05-08T12:10:52;100679.56;;;18.87;100.00
44934;BME280;30667;43.614;1.442;2023-05-08T12:13:21;100679.25;;;18.88;100.00
44934;BME280;30667;43.614;1.442;2023-05-08T12:15:49;100677.50;;;18.93;100.00
44934;BME280;30667;43.614;1.442;2023-05-08T12:18:16;100689.13;;;18.98;100.00
44934;BME280;30667;43.614;1.442;2023-05-08T12:20:42;100685.59;;;19.06;100.00
44934;BME280;30667;43.614;1.442;2023-05-08T12:23:08;100694.47;;;19.03;100.00
44934;BME280;30667;43.614;1.442;2023-05-08T12:25:37;100674.78;;;19.01;100.00
44934;BME280;30667;43.614;1.442;2023-05-08T12:28:05;100670.13;;;19.11;100.00
44934;BME280;30667;43.614;1.442;2023-05-08T12:30:31;100668.50;;;19.10;100.00
44934;BME280;30667;43.614;1.442;2023-05-08T12:32:57;100672.53;;;19.03;100.00
44934;BME280;30667;43.614;1.442;2023-05-08T12:35:22;100668.97;;;19.03;100.00
44934;BME280;30667;43.614;1.442;2023-05-08T12:37:49;100663.63;;;18.98;100.00
44934;BME280;30667;43.614;1.442;2023-05-08T12:40:24;100650.56;;;18.86;100.00
44934;BME280;30667;43.614;1.442;2023-05-08T12:42:51;100644.91;;;19.00;100.00
44934;BME280;30667;43.614;1.442;2023-05-08T12:45:20;100637.03;;;19.07;100.00
44934;BME280;30667;43.614;1.442;2023-05-08T12:47:50;100642.38;;;19.12;100.00
44934;BME280;30667;43.614;1.442;2023-05-08T12:50:17;100631.06;;;19.05;100.00
44934;BME280;30667;43.614;1.442;2023-05-08T12:52:45;100644.44;;;19.06;100.00
44934;BME280;30667;43.614;1.442;2023-05-08T12:55:23;100647.38;;;19.10;100.00
44934;BME280;30667;43.614;1.442;2023-05-08T12:57:57;100645.13;;;19.03;100.00
44934;BME280;30667;43.614;1.442;2023-05-08T13:00:22;100651.41;;;19.04;100.00
44934;BME280;30667;43.614;1.442;2023-05-08T13:02:54;100643.34;;;19.08;100.00
44934;BME280;30667;43.614;1.442;2023-05-08T13:05:21;100642.06;;;19.14;100.00
44934;BME280;30667;43.614;1.442;2023-05-08T13:07:51;100642.03;;;19.05;100.00
44934;BME280;30667;43.614;1.442;2023-05-08T13:10:17;100632.84;;;19.01;100.00
44934;BME280;30667;43.614;1.442;2023-05-08T13:12:45;100630.94;;;19.10;100.00
44934;BME280;30667;43.614;1.442;2023-05-08T13:15:11;100638.66;;;19.08;100.00
44934;BME280;30667;43.614;1.442;2023-05-08T13:17:36;100633.66;;;19.19;100.00
44934;BME280;30667;43.614;1.442;2023-05-08T13:20:02;100629.66;;;19.16;100.00
44934;BME280;30667;43.614;1.442;2023-05-08T13:22:28;100634.00;;;19.17;100.00